»·PEaware :: DAL454 KGPI-KLAS

DAL454 :: KGPI-KLAS

FLIGHT INFORMATION

Flight Status: Arrived
Operator:
Delta Air Lines
More flights by this operator :: More flights under this callsign
Pilot: Ryan B. (8502)
Aircraft: BOEING 767-300
(B763)
More flights by this aircraft type
Origin: KGPI Glacier Park Intl
United States
Destination: KLAS Harry Reid Intl
United States
More flights between these airports :: More routes between these airports
Route: SKOTT2 SKOTT LKT TCH J9 MLF STEWW CHOWW2
File this flight plan on PilotEdge
Remarks:
Altitude:
(Current/Filed)
38,000ft
Speed:
(Current/Filed)
400kts
Departed: 16-Jun-22 03:54 PM
Arrived: 16-Jun-22 05:59 PM
Distance/Time
Traveled:
735nm/2:05
Distance/Time
To Go:
Arrived

Flight Plot

Page will automatically refresh every two minutes.

Flight plan parsing failed; only flown route is shown


Map Options




Map Legend


Flown Route
Filed Route
Departure Airport
Arrival Airport
Navaid (VOR, NDB)
Fix

Horizontal Profiles

Position Reports

Time Latitude Longitude Heading Altitude Ground
Speed
16-Jun-22 15:33 48.307262 -114.254177 124 2972ft 0kts
16-Jun-22 15:34 48.307262 -114.254177 124 2972ft 0kts
16-Jun-22 15:35 48.307262 -114.254177 124 2972ft 0kts
16-Jun-22 15:36 48.307262 -114.254177 124 2972ft 0kts
16-Jun-22 15:37 48.307262 -114.254177 124 2972ft 0kts
16-Jun-22 15:38 48.307262 -114.254177 124 2972ft 0kts
16-Jun-22 15:39 48.307262 -114.254177 124 2972ft 0kts
16-Jun-22 15:40 48.307262 -114.254177 124 2972ft 0kts
16-Jun-22 15:41 48.307262 -114.254177 124 2972ft 0kts
16-Jun-22 15:42 48.307262 -114.254177 124 2972ft 0kts
16-Jun-22 15:43 48.307262 -114.254177 124 2972ft 0kts
16-Jun-22 15:44 48.307262 -114.254177 124 2972ft 0kts
16-Jun-22 15:45 48.307290 -114.254237 141 2972ft 2kts
16-Jun-22 15:46 48.307840 -114.254525 187 2973ft 2kts
16-Jun-22 15:47 48.308224 -114.254258 215 2974ft 0kts
16-Jun-22 15:48 48.308224 -114.254259 215 2974ft 0kts
16-Jun-22 15:49 48.308027 -114.254982 305 2973ft 7kts
16-Jun-22 15:50 48.306065 -114.258046 215 2973ft 14kts
16-Jun-22 15:51 48.301780 -114.262514 214 2969ft 22kts
16-Jun-22 15:52 48.298651 -114.267045 308 2967ft 13kts
16-Jun-22 15:53 48.307527 -114.258630 35 2974ft 122kts
16-Jun-22 15:54 48.351214 -114.231552 339 4733ft 194kts
16-Jun-22 15:55 48.359655 -114.302202 222 7138ft 211kts
16-Jun-22 15:56 48.305458 -114.286994 139 8975ft 253kts
16-Jun-22 15:57 48.249517 -114.217918 144 11215ft 281kts
16-Jun-22 15:58 48.174974 -114.173398 179 13236ft 317kts
16-Jun-22 15:59 48.079470 -114.166206 180 15123ft 370kts
16-Jun-22 16:00 47.974567 -114.158598 182 18068ft 387kts
16-Jun-22 16:01 47.866478 -114.150866 183 21039ft 391kts
16-Jun-22 16:02 47.758557 -114.143174 183 23829ft 392kts
16-Jun-22 16:03 47.649529 -114.138640 185 25850ft 404kts
16-Jun-22 16:04 47.545643 -114.136425 185 27597ft 416kts
16-Jun-22 16:05 47.428445 -114.133894 185 29405ft 430kts
16-Jun-22 16:06 47.308507 -114.131258 185 31355ft 429kts
16-Jun-22 16:07 47.190835 -114.128726 186 33299ft 418kts
16-Jun-22 16:08 47.076348 -114.126286 187 35217ft 408kts
16-Jun-22 16:09 46.966172 -114.123922 187 37015ft 391kts
16-Jun-22 16:10 46.859601 -114.121732 187 37868ft 386kts
16-Jun-22 16:11 46.750793 -114.119474 187 37883ft 397kts
16-Jun-22 16:12 46.641305 -114.117145 187 37885ft 395kts
16-Jun-22 16:13 46.531699 -114.114860 187 37883ft 397kts
16-Jun-22 16:14 46.421195 -114.112558 187 37882ft 397kts
16-Jun-22 16:15 46.311246 -114.110285 187 37881ft 398kts
16-Jun-22 16:16 46.200656 -114.108018 187 37701ft 402kts
16-Jun-22 16:17 46.087666 -114.105732 187 36682ft 413kts
16-Jun-22 16:18 45.974503 -114.103313 188 35629ft 405kts
16-Jun-22 16:19 45.862446 -114.101110 187 34602ft 410kts
16-Jun-22 16:20 45.749371 -114.098812 187 33643ft 413kts
16-Jun-22 16:21 45.653708 -114.096869 186 32881ft 415kts
16-Jun-22 16:22 45.544881 -114.094678 186 32870ft 419kts
16-Jun-22 16:23 45.414754 -114.092048 186 32848ft 417kts
16-Jun-22 16:24 45.298773 -114.089734 186 32846ft 417kts
16-Jun-22 16:25 45.182853 -114.087436 186 32845ft 418kts
16-Jun-22 16:26 45.070410 -114.085206 185 32854ft 419kts
16-Jun-22 16:27 44.957633 -114.049306 168 32884ft 440kts
16-Jun-22 16:28 44.851417 -113.992329 167 32894ft 440kts
16-Jun-22 16:29 44.737243 -113.930953 167 32893ft 441kts
16-Jun-22 16:30 44.623244 -113.869906 167 32892ft 442kts
16-Jun-22 16:31 44.509211 -113.809090 166 32890ft 441kts
16-Jun-22 16:32 44.395221 -113.748549 166 32910ft 442kts
16-Jun-22 16:33 44.282754 -113.689060 166 32934ft 440kts
16-Jun-22 16:34 44.170277 -113.629821 166 32933ft 441kts
16-Jun-22 16:35 44.059020 -113.571454 166 32932ft 441kts
16-Jun-22 16:36 43.946110 -113.512473 166 32932ft 443kts
16-Jun-22 16:37 43.829453 -113.451775 166 32946ft 443kts
16-Jun-22 16:38 43.715214 -113.392581 166 32939ft 444kts
16-Jun-22 16:39 43.599259 -113.332741 166 32924ft 443kts
16-Jun-22 16:40 43.481893 -113.272425 166 32924ft 445kts
16-Jun-22 16:41 43.363433 -113.211797 166 32922ft 445kts
16-Jun-22 16:42 43.245832 -113.151863 166 32921ft 447kts
16-Jun-22 16:43 43.127159 -113.091640 166 32901ft 448kts
16-Jun-22 16:44 43.009603 -113.032222 166 32865ft 449kts
16-Jun-22 16:45 42.893700 -112.973877 166 32882ft 451kts
16-Jun-22 16:46 42.776833 -112.915283 166 32908ft 451kts
16-Jun-22 16:47 42.656921 -112.855407 166 32931ft 451kts
16-Jun-22 16:48 42.536866 -112.795703 166 32981ft 451kts
16-Jun-22 16:49 42.416968 -112.736323 166 32972ft 452kts
16-Jun-22 16:50 42.297351 -112.677323 166 32972ft 452kts
16-Jun-22 16:51 42.180980 -112.620153 166 32971ft 454kts
16-Jun-22 16:52 42.072543 -112.567088 166 32970ft 455kts
16-Jun-22 16:53 41.947781 -112.506275 165 32931ft 457kts
16-Jun-22 16:54 41.830038 -112.449103 165 32925ft 457kts
16-Jun-22 16:55 41.710624 -112.391354 165 32925ft 457kts
16-Jun-22 16:56 41.593413 -112.334890 166 32914ft 457kts
16-Jun-22 16:57 41.476967 -112.279006 166 33635ft 453kts
16-Jun-22 16:58 41.361383 -112.223744 166 34587ft 449kts
16-Jun-22 16:59 41.244786 -112.168226 166 34911ft 448kts
16-Jun-22 17:00 41.128833 -112.113209 166 35133ft 445kts
16-Jun-22 17:01 41.019663 -112.061607 166 36027ft 445kts
16-Jun-22 17:02 40.902865 -112.006607 167 36929ft 444kts
16-Jun-22 17:03 40.801978 -111.979561 181 36957ft 430kts
16-Jun-22 17:04 40.684500 -111.970013 182 36941ft 428kts
16-Jun-22 17:05 40.557636 -111.960784 181 36945ft 429kts
16-Jun-22 17:06 40.442250 -111.952494 181 36948ft 428kts
16-Jun-22 17:07 40.325966 -111.944176 181 36950ft 429kts
16-Jun-22 17:08 40.218387 -111.975302 205 36926ft 417kts
16-Jun-22 17:09 40.119633 -112.032078 206 36916ft 415kts
16-Jun-22 17:10 40.020000 -112.090341 206 36921ft 416kts
16-Jun-22 17:11 39.929493 -112.142607 206 36919ft 416kts
16-Jun-22 17:12 39.838979 -112.193993 206 36928ft 416kts
16-Jun-22 17:13 39.735192 -112.252738 206 36927ft 416kts
16-Jun-22 17:14 39.636289 -112.308542 205 36926ft 415kts
16-Jun-22 17:15 39.539956 -112.362725 205 36924ft 414kts
16-Jun-22 17:16 39.445930 -112.415456 205 36922ft 414kts
16-Jun-22 17:17 39.349465 -112.469394 205 36921ft 414kts
16-Jun-22 17:18 39.259164 -112.519735 205 36920ft 414kts
16-Jun-22 17:19 39.153817 -112.578288 205 36918ft 415kts
16-Jun-22 17:20 39.061782 -112.629287 205 36917ft 415kts
16-Jun-22 17:21 38.968397 -112.680876 205 36956ft 416kts
16-Jun-22 17:22 38.867418 -112.736497 205 37023ft 416kts
16-Jun-22 17:23 38.764636 -112.792940 205 37022ft 416kts
16-Jun-22 17:24 38.647944 -112.856805 205 37008ft 417kts
16-Jun-22 17:25 38.531391 -112.920365 205 36989ft 417kts
16-Jun-22 17:26 38.409725 -112.986475 205 36970ft 417kts
16-Jun-22 17:27 38.292012 -113.045787 202 36963ft 417kts
16-Jun-22 17:28 38.177454 -113.100103 202 36968ft 416kts
16-Jun-22 17:29 38.068973 -113.151400 202 36966ft 417kts
16-Jun-22 17:30 37.960428 -113.202574 202 36968ft 419kts
16-Jun-22 17:31 37.851389 -113.253807 202 36992ft 418kts
16-Jun-22 17:33 37.742618 -113.304757 202 37027ft 418kts
16-Jun-22 17:34 37.634063 -113.355448 202 37026ft 417kts
16-Jun-22 17:35 37.524973 -113.406249 202 36405ft 426kts
16-Jun-22 17:36 37.414680 -113.457430 201 34248ft 430kts
16-Jun-22 17:37 37.301262 -113.509892 201 31672ft 443kts
16-Jun-22 17:38 37.186377 -113.570019 205 29346ft 453kts
16-Jun-22 17:39 37.074911 -113.635449 205 27173ft 436kts
16-Jun-22 17:40 36.966932 -113.698410 204 25208ft 428kts
16-Jun-22 17:41 36.860051 -113.760778 204 23271ft 419kts
16-Jun-22 17:42 36.756713 -113.820941 204 21401ft 410kts
16-Jun-22 17:43 36.654437 -113.880309 203 19546ft 402kts
16-Jun-22 17:44 36.564680 -113.958971 228 17885ft 401kts
16-Jun-22 17:45 36.496505 -114.067218 229 16347ft 391kts
16-Jun-22 17:46 36.431118 -114.172202 229 15150ft 382kts
16-Jun-22 17:47 36.364397 -114.278159 229 14000ft 395kts
16-Jun-22 17:48 36.297511 -114.383028 229 12026ft 371kts
16-Jun-22 17:49 36.235134 -114.479991 228 11181ft 348kts
16-Jun-22 17:50 36.177545 -114.568251 228 10159ft 315kts
16-Jun-22 17:51 36.126895 -114.645660 228 9008ft 294kts
16-Jun-22 17:52 36.079212 -114.719746 238 8031ft 263kts
16-Jun-22 17:53 36.073307 -114.811506 265 7299ft 277kts
16-Jun-22 17:54 36.073649 -114.896557 263 5878ft 221kts
16-Jun-22 17:55 36.073674 -114.968782 263 4704ft 200kts
16-Jun-22 17:56 36.073681 -115.034508 263 3649ft 184kts
16-Jun-22 17:57 36.073628 -115.094179 265 2718ft 161kts
16-Jun-22 17:58 36.073673 -115.146092 269 2190ft 102kts
16-Jun-22 17:59 36.074977 -115.155640 303 2190ft 8kts
16-Jun-22 18:00 36.077559 -115.158232 0 2190ft 1kts
16-Jun-22 18:01 36.078032 -115.156111 89 2190ft 23kts
16-Jun-22 18:02 36.078563 -115.147685 94 2190ft 24kts
16-Jun-22 18:02 36.078282 -115.140454 69 2190ft 23kts
16-Jun-22 18:03 36.079869 -115.139590 352 2190ft 0kts
16-Jun-22 18:05 36.079869 -115.139590 352 2190ft 0kts
16-Jun-22 18:06 36.079869 -115.139590 352 2190ft 0kts
16-Jun-22 18:06 36.079869 -115.139590 352 2190ft 0kts

Navigation Log

Ident Type
Flight plan parsing failed, navigation log unavailable